Time;durP1;ratioP1;P1;durP2;ratioP2;P2;SDS_P1;SDS_P2;PMS_P1;PMS_P2;Temp;Humidity;BMP_temperature;BMP_pressure;BME280_temperature;BME280_humidity;BME280_pressure;Samples;Min_cycle;Max_cycle;Signal;HPM_P1;HPM_P2
2022/12/09 00:02:18;;;;;;;118.28;20.70;;;;;;;;;;5035087;28;20106;-74
2022/12/09 00:04:45;;;;;;;160.13;22.60;;;;;;;;;;5057126;28;20056;-74
2022/12/09 00:07:11;;;;;;;187.48;21.02;;;;;;;;;;5038761;28;20779;-74
2022/12/09 00:09:37;;;;;;;166.43;22.23;;;;;;;;;;5041643;28;20135;-74
2022/12/09 00:12:03;;;;;;;251.93;26.85;;;;;;;;;;5039908;28;20130;-74
2022/12/09 00:14:29;;;;;;;250.63;27.25;;;;;;;;;;5038914;28;20044;-74
2022/12/09 00:16:55;;;;;;;154.63;25.05;;;;;;;;;;5036960;28;20176;-74
2022/12/09 00:19:21;;;;;;;185.80;22.55;;;;;;;;;;5056058;28;20063;-74
2022/12/09 00:21:47;;;;;;;170.68;23.88;;;;;;;;;;5032804;28;20052;-74
2022/12/09 00:24:13;;;;;;;175.23;22.65;;;;;;;;;;5052959;28;20051;-74
2022/12/09 00:26:40;;;;;;;167.70;22.88;;;;;;;;;;5039123;28;20515;-74
2022/12/09 00:29:06;;;;;;;213.98;23.48;;;;;;;;;;5037125;28;20053;-74
2022/12/09 00:31:33;;;;;;;184.18;21.83;;;;;;;;;;5034298;28;20051;-73
2022/12/09 00:34:00;;;;;;;260.05;26.13;;;;;;;;;;5036637;28;20048;-74
2022/12/09 00:36:27;;;;;;;209.05;20.30;;;;;;;;;;5037414;28;20130;-74
2022/12/09 00:38:54;;;;;;;264.77;23.92;;;;;;;;;;5033966;28;20573;-74
2022/12/09 00:41:20;;;;;;;186.20;21.35;;;;;;;;;;5037523;28;20086;-74
2022/12/09 00:43:46;;;;;;;156.05;19.77;;;;;;;;;;5011666;28;20059;-74
2022/12/09 00:46:12;;;;;;;252.45;25.00;;;;;;;;;;5056310;28;20040;-74
2022/12/09 00:48:38;;;;;;;227.68;22.70;;;;;;;;;;5020030;28;20166;-74
2022/12/09 00:51:05;;;;;;;281.05;25.58;;;;;;;;;;5051729;28;20130;-74
2022/12/09 00:53:31;;;;;;;232.00;24.95;;;;;;;;;;5015037;28;20052;-74
2022/12/09 00:55:57;;;;;;;232.68;23.55;;;;;;;;;;5051877;28;20052;-74
2022/12/09 00:58:24;;;;;;;269.77;27.83;;;;;;;;;;5037537;28;20878;-74
2022/12/09 01:00:52;;;;;;;170.77;23.92;;;;;;;;;;5018422;28;20052;-74
2022/12/09 01:03:18;;;;;;;199.70;23.65;;;;;;;;;;5038290;28;20071;-74
2022/12/09 01:05:44;;;;;;;139.25;23.30;;;;;;;;;;5015316;28;20051;-74
2022/12/09 01:08:10;;;;;;;139.13;22.77;;;;;;;;;;5050060;28;20092;-74
2022/12/09 01:10:37;;;;;;;108.65;22.65;;;;;;;;;;5032650;28;20097;-74
2022/12/09 01:13:03;;;;;;;132.13;22.83;;;;;;;;;;5024543;28;20055;-74
2022/12/09 01:15:29;;;;;;;159.00;26.65;;;;;;;;;;5035446;28;22054;-74
2022/12/09 01:17:56;;;;;;;64.35;25.08;;;;;;;;;;5053747;28;20048;-74
2022/12/09 01:20:22;;;;;;;59.63;25.38;;;;;;;;;;5033595;28;21289;-74
2022/12/09 01:22:48;;;;;;;56.65;24.73;;;;;;;;;;5051214;28;20052;-74
2022/12/09 01:25:14;;;;;;;53.90;24.00;;;;;;;;;;5052724;28;20044;-74
2022/12/09 01:27:40;;;;;;;50.58;24.45;;;;;;;;;;5034851;28;20117;-74
2022/12/09 01:30:06;;;;;;;53.72;25.55;;;;;;;;;;5055923;28;20060;-73
2022/12/09 01:32:33;;;;;;;48.60;22.55;;;;;;;;;;5037746;28;20058;-73
2022/12/09 01:34:59;;;;;;;55.60;23.75;;;;;;;;;;5017787;28;20139;-73
2022/12/09 01:37:25;;;;;;;48.63;22.90;;;;;;;;;;5052895;28;20127;-74
2022/12/09 01:39:51;;;;;;;47.30;22.77;;;;;;;;;;5036737;28;20763;-73
2022/12/09 01:42:21;;;;;;;53.17;23.75;;;;;;;;;;5032964;28;20051;-73
2022/12/09 01:45:06;;;;;;;44.83;21.65;;;;;;;;;;5057103;28;20135;-74
2022/12/09 01:47:32;;;;;;;42.75;20.05;;;;;;;;;;5037156;28;20051;-73
2022/12/09 01:49:58;;;;;;;46.25;20.58;;;;;;;;;;5060725;28;20059;-74
2022/12/09 01:52:24;;;;;;;44.80;21.48;;;;;;;;;;5045303;28;20051;-73
2022/12/09 01:54:51;;;;;;;44.55;20.98;;;;;;;;;;5049585;28;20040;-73
2022/12/09 01:57:17;;;;;;;36.25;18.40;;;;;;;;;;5075075;28;20052;-73
2022/12/09 01:59:44;;;;;;;37.47;18.20;;;;;;;;;;5084318;28;20092;-73
2022/12/09 02:02:13;;;;;;;36.97;18.15;;;;;;;;;;5052204;28;20133;-73
2022/12/09 02:04:40;;;;;;;36.92;18.50;;;;;;;;;;5060647;28;20075;-74
2022/12/09 02:07:08;;;;;;;35.53;17.13;;;;;;;;;;5060239;28;20044;-74
2022/12/09 02:09:34;;;;;;;37.88;18.00;;;;;;;;;;5077214;28;20099;-73
2022/12/09 02:12:00;;;;;;;35.10;17.88;;;;;;;;;;5058449;28;20056;-74
2022/12/09 02:14:40;;;;;;;35.42;17.27;;;;;;;;;;5038986;28;20090;-74
2022/12/09 02:17:09;;;;;;;32.85;15.90;;;;;;;;;;5030123;28;20610;-74
2022/12/09 02:19:39;;;;;;;31.25;16.17;;;;;;;;;;5035339;28;20055;-74
2022/12/09 02:22:07;;;;;;;31.52;15.68;;;;;;;;;;5039826;28;20695;-73
2022/12/09 02:24:48;;;;;;;32.13;15.35;;;;;;;;;;5042273;28;20051;-73
2022/12/09 02:27:17;;;;;;;30.60;16.15;;;;;;;;;;5056897;28;21434;-73
2022/12/09 02:29:53;;;;;;;32.30;14.65;;;;;;;;;;5040901;28;20053;-73
2022/12/09 02:32:39;;;;;;;29.00;15.65;;;;;;;;;;5039042;28;20066;-73
2022/12/09 02:35:14;;;;;;;30.75;15.05;;;;;;;;;;5010866;28;20091;-73
2022/12/09 02:37:44;;;;;;;27.77;14.70;;;;;;;;;;5038103;28;20154;-73
2022/12/09 02:40:13;;;;;;;26.00;14.45;;;;;;;;;;5025547;28;20048;-73
2022/12/09 02:42:39;;;;;;;27.05;13.88;;;;;;;;;;5034494;28;20047;-73
2022/12/09 02:45:07;;;;;;;22.95;13.52;;;;;;;;;;5032674;28;21131;-73
2022/12/09 02:47:36;;;;;;;28.45;14.93;;;;;;;;;;5050427;28;20052;-73
2022/12/09 02:50:04;;;;;;;26.98;14.98;;;;;;;;;;5038235;28;20044;-73
2022/12/09 02:52:31;;;;;;;29.35;14.30;;;;;;;;;;5055795;28;20516;-73
2022/12/09 02:54:59;;;;;;;28.30;14.60;;;;;;;;;;5035268;28;20044;-75
2022/12/09 02:57:26;;;;;;;26.35;14.27;;;;;;;;;;5022847;28;20044;-73
2022/12/09 02:59:52;;;;;;;26.10;14.32;;;;;;;;;;5030365;28;20052;-75
2022/12/09 03:02:40;;;;;;;29.85;14.98;;;;;;;;;;5033989;28;20097;-74
2022/12/09 03:05:12;;;;;;;27.42;13.10;;;;;;;;;;5036607;28;20056;-75
2022/12/09 03:07:38;;;;;;;28.08;14.88;;;;;;;;;;5036767;28;21978;-74
2022/12/09 03:10:13;;;;;;;26.77;12.85;;;;;;;;;;5031575;28;20061;-74
2022/12/09 03:12:40;;;;;;;25.77;13.23;;;;;;;;;;5054842;28;20040;-75
2022/12/09 03:15:07;;;;;;;27.55;13.82;;;;;;;;;;5037542;28;20676;-74
2022/12/09 03:17:34;;;;;;;28.95;13.60;;;;;;;;;;5035834;28;20048;-74
2022/12/09 03:20:03;;;;;;;29.30;13.10;;;;;;;;;;5035129;28;20062;-74
2022/12/09 03:22:32;;;;;;;26.75;12.70;;;;;;;;;;5031501;28;20779;-74
2022/12/09 03:25:13;;;;;;;23.70;12.43;;;;;;;;;;5032616;28;20148;-75
2022/12/09 03:27:46;;;;;;;22.88;12.52;;;;;;;;;;5056126;28;20052;-75
2022/12/09 03:30:13;;;;;;;24.30;13.47;;;;;;;;;;5034475;28;20084;-74
2022/12/09 03:32:40;;;;;;;24.70;12.02;;;;;;;;;;5034728;28;20483;-75
2022/12/09 03:35:20;;;;;;;23.92;11.88;;;;;;;;;;5010648;28;20189;-75
2022/12/09 03:37:48;;;;;;;27.92;12.50;;;;;;;;;;5035696;28;20052;-73
2022/12/09 03:40:15;;;;;;;24.90;13.10;;;;;;;;;;5035903;28;20056;-74
2022/12/09 03:42:50;;;;;;;25.92;13.50;;;;;;;;;;5038641;28;20048;-73
2022/12/09 03:45:17;;;;;;;26.10;13.02;;;;;;;;;;5053602;28;20080;-72
2022/12/09 03:47:43;;;;;;;28.80;13.30;;;;;;;;;;5034819;28;20059;-73
2022/12/09 03:50:10;;;;;;;28.33;13.80;;;;;;;;;;5032792;28;20122;-72
2022/12/09 03:52:40;;;;;;;37.70;13.23;;;;;;;;;;5051059;28;20053;-73
2022/12/09 03:55:10;;;;;;;26.77;13.05;;;;;;;;;;5029732;28;22052;-73
2022/12/09 03:57:37;;;;;;;28.63;13.20;;;;;;;;;;5030652;28;20117;-73
2022/12/09 04:00:04;;;;;;;22.33;13.00;;;;;;;;;;5033062;28;20052;-73
2022/12/09 04:02:30;;;;;;;22.38;12.27;;;;;;;;;;5022967;28;20056;-73
2022/12/09 04:04:56;;;;;;;23.90;12.35;;;;;;;;;;5053465;28;20106;-73
2022/12/09 04:07:22;;;;;;;26.00;12.90;;;;;;;;;;5031235;28;20138;-73
2022/12/09 04:09:48;;;;;;;24.58;12.73;;;;;;;;;;5033660;28;20129;-72
2022/12/09 04:12:14;;;;;;;26.70;13.80;;;;;;;;;;5050383;28;20056;-72
2022/12/09 04:14:40;;;;;;;25.90;13.35;;;;;;;;;;5038396;28;20063;-73
2022/12/09 04:17:06;;;;;;;28.13;13.65;;;;;;;;;;5033305;28;20170;-72
2022/12/09 04:19:32;;;;;;;27.17;12.70;;;;;;;;;;5032906;28;20063;-73
2022/12/09 04:21:58;;;;;;;32.15;14.55;;;;;;;;;;5049016;28;20050;-73
2022/12/09 04:24:25;;;;;;;28.95;13.85;;;;;;;;;;5029842;28;20044;-72
2022/12/09 04:26:51;;;;;;;31.05;14.63;;;;;;;;;;5032716;28;20044;-73
2022/12/09 04:29:17;;;;;;;29.35;15.63;;;;;;;;;;5032718;28;20044;-72
2022/12/09 04:31:43;;;;;;;30.35;14.25;;;;;;;;;;5028701;28;20066;-73
2022/12/09 04:34:09;;;;;;;29.17;15.35;;;;;;;;;;5032247;28;20051;-73
2022/12/09 04:36:35;;;;;;;31.88;14.88;;;;;;;;;;5033781;28;20052;-73
2022/12/09 04:39:01;;;;;;;31.20;15.68;;;;;;;;;;5046974;28;20048;-73
2022/12/09 04:41:27;;;;;;;32.53;15.32;;;;;;;;;;5031294;28;20046;-73
2022/12/09 04:43:53;;;;;;;28.92;14.60;;;;;;;;;;5009613;28;20149;-73
2022/12/09 04:46:19;;;;;;;32.05;15.40;;;;;;;;;;5050920;28;20051;-73
2022/12/09 04:48:45;;;;;;;32.50;15.05;;;;;;;;;;5048262;28;20170;-73
2022/12/09 04:51:12;;;;;;;29.33;14.98;;;;;;;;;;5050549;28;20044;-73
2022/12/09 04:53:38;;;;;;;33.00;14.52;;;;;;;;;;5019318;28;20138;-73
2022/12/09 04:56:05;;;;;;;31.52;14.82;;;;;;;;;;5031519;28;20079;-72
2022/12/09 04:58:31;;;;;;;31.92;15.07;;;;;;;;;;5028296;28;20056;-73
2022/12/09 05:00:58;;;;;;;27.05;13.80;;;;;;;;;;5047506;28;20063;-73
2022/12/09 05:03:24;;;;;;;31.42;15.32;;;;;;;;;;5033835;28;20077;-73
2022/12/09 05:05:50;;;;;;;31.10;14.77;;;;;;;;;;5036340;28;20170;-73
2022/12/09 05:08:16;;;;;;;32.33;14.50;;;;;;;;;;5049389;28;20153;-73
2022/12/09 05:10:48;;;;;;;31.77;14.65;;;;;;;;;;5037604;28;20456;-73
2022/12/09 05:13:14;;;;;;;31.33;14.63;;;;;;;;;;5037400;28;20187;-73
2022/12/09 05:15:40;;;;;;;32.13;15.65;;;;;;;;;;5038755;28;20052;-73
2022/12/09 05:18:06;;;;;;;30.40;14.85;;;;;;;;;;5037686;28;20060;-73
2022/12/09 05:20:32;;;;;;;32.75;14.48;;;;;;;;;;5037313;28;20201;-73
2022/12/09 05:22:58;;;;;;;30.88;15.52;;;;;;;;;;5034807;28;20064;-73
2022/12/09 05:25:24;;;;;;;26.83;14.60;;;;;;;;;;5055365;28;20142;-73
2022/12/09 05:27:50;;;;;;;31.98;15.55;;;;;;;;;;5037397;28;20054;-72
2022/12/09 05:30:16;;;;;;;39.53;14.25;;;;;;;;;;5038133;28;20108;-72
2022/12/09 05:32:42;;;;;;;34.08;16.55;;;;;;;;;;5036158;28;20530;-73
2022/12/09 05:35:09;;;;;;;30.20;15.20;;;;;;;;;;5053549;28;20091;-74
2022/12/09 05:37:35;;;;;;;31.65;16.33;;;;;;;;;;5047069;28;20075;-73
2022/12/09 05:40:01;;;;;;;27.63;14.93;;;;;;;;;;5048376;28;20052;-73
2022/12/09 05:42:27;;;;;;;34.38;15.23;;;;;;;;;;5033517;28;20055;-73
2022/12/09 05:44:54;;;;;;;30.88;14.57;;;;;;;;;;5031717;28;20055;-73
2022/12/09 05:47:20;;;;;;;32.55;16.23;;;;;;;;;;5036472;28;20056;-73
2022/12/09 05:49:47;;;;;;;31.27;15.98;;;;;;;;;;5035451;28;20515;-73
2022/12/09 05:52:13;;;;;;;29.50;14.27;;;;;;;;;;5033688;28;20055;-73
2022/12/09 05:54:40;;;;;;;29.27;15.32;;;;;;;;;;5054972;28;20071;-73
2022/12/09 05:57:06;;;;;;;26.30;14.55;;;;;;;;;;5041200;28;21969;-73
2022/12/09 05:59:32;;;;;;;29.80;15.27;;;;;;;;;;5040242;28;20147;-72
2022/12/09 06:01:58;;;;;;;30.67;15.90;;;;;;;;;;5056881;28;20131;-72
2022/12/09 06:04:24;;;;;;;29.33;15.05;;;;;;;;;;5039467;28;20078;-72
2022/12/09 06:06:50;;;;;;;30.70;14.85;;;;;;;;;;5041590;28;20044;-73
2022/12/09 06:09:16;;;;;;;31.30;14.80;;;;;;;;;;5056126;28;20048;-72
2022/12/09 06:11:42;;;;;;;30.50;14.90;;;;;;;;;;5058402;28;20083;-72
2022/12/09 06:14:09;;;;;;;33.40;15.77;;;;;;;;;;5036674;28;20320;-72
2022/12/09 06:16:36;;;;;;;31.00;15.70;;;;;;;;;;5041227;28;20613;-72
2022/12/09 06:19:02;;;;;;;32.17;15.20;;;;;;;;;;5039817;28;20071;-72
2022/12/09 06:21:28;;;;;;;30.38;15.75;;;;;;;;;;5037086;28;20147;-72
2022/12/09 06:23:54;;;;;;;32.45;16.40;;;;;;;;;;5053963;28;20090;-72
2022/12/09 06:26:27;;;;;;;31.35;15.68;;;;;;;;;;5035146;28;20048;-72
2022/12/09 06:28:54;;;;;;;30.55;15.63;;;;;;;;;;5034292;28;20064;-72
2022/12/09 06:31:20;;;;;;;31.70;17.02;;;;;;;;;;5040422;28;20056;-72
2022/12/09 06:33:46;;;;;;;35.50;15.43;;;;;;;;;;5062240;28;20051;-72
2022/12/09 06:36:12;;;;;;;33.80;15.10;;;;;;;;;;5053893;28;20047;-75
2022/12/09 06:38:38;;;;;;;33.63;16.83;;;;;;;;;;5054402;28;20049;-74
2022/12/09 06:41:05;;;;;;;36.60;18.10;;;;;;;;;;5037698;28;20141;-75
2022/12/09 06:43:31;;;;;;;32.30;17.40;;;;;;;;;;5028615;28;22135;-75
2022/12/09 06:45:57;;;;;;;32.83;16.88;;;;;;;;;;5037612;28;22039;-74
2022/12/09 06:48:23;;;;;;;32.67;16.23;;;;;;;;;;5037691;28;20596;-75
2022/12/09 06:50:50;;;;;;;35.53;16.77;;;;;;;;;;5061215;28;20443;-75
2022/12/09 06:53:17;;;;;;;33.75;17.13;;;;;;;;;;5046381;28;20056;-74
2022/12/09 06:55:43;;;;;;;39.38;17.38;;;;;;;;;;5042375;28;20642;-74
2022/12/09 06:58:09;;;;;;;36.63;18.00;;;;;;;;;;5057052;28;20045;-74
2022/12/09 07:00:36;;;;;;;38.80;17.25;;;;;;;;;;5038377;28;20107;-74
2022/12/09 07:03:02;;;;;;;34.17;17.13;;;;;;;;;;5042677;28;20049;-73
2022/12/09 07:05:28;;;;;;;34.38;16.85;;;;;;;;;;5043960;28;20048;-73
2022/12/09 07:07:54;;;;;;;34.47;17.65;;;;;;;;;;5041280;28;20052;-74
2022/12/09 07:10:20;;;;;;;33.95;17.30;;;;;;;;;;5041093;28;20060;-72
2022/12/09 07:12:46;;;;;;;34.28;16.70;;;;;;;;;;5059415;28;20036;-73
2022/12/09 07:15:13;;;;;;;35.50;17.08;;;;;;;;;;5040213;28;20097;-72
2022/12/09 07:17:39;;;;;;;36.25;17.65;;;;;;;;;;5034657;28;20056;-73
2022/12/09 07:20:05;;;;;;;37.42;19.35;;;;;;;;;;5039992;28;20062;-72
2022/12/09 07:22:35;;;;;;;36.28;17.20;;;;;;;;;;5041011;28;20146;-72
2022/12/09 07:25:01;;;;;;;37.45;20.08;;;;;;;;;;5041515;28;20129;-73
2022/12/09 07:27:27;;;;;;;38.83;19.40;;;;;;;;;;5034920;28;20085;-72
2022/12/09 07:29:53;;;;;;;45.05;19.95;;;;;;;;;;5040050;28;21867;-72
2022/12/09 07:32:19;;;;;;;36.70;19.17;;;;;;;;;;5037673;28;20183;-72
2022/12/09 07:34:45;;;;;;;40.75;18.75;;;;;;;;;;5040906;28;20044;-73
2022/12/09 07:37:12;;;;;;;35.60;17.50;;;;;;;;;;5040166;28;20062;-72
2022/12/09 07:39:38;;;;;;;34.78;17.95;;;;;;;;;;5028827;28;20143;-73
2022/12/09 07:42:04;;;;;;;33.00;16.65;;;;;;;;;;5037684;28;20056;-73
2022/12/09 07:44:30;;;;;;;33.97;16.77;;;;;;;;;;5058614;28;20071;-73
2022/12/09 07:46:57;;;;;;;33.95;16.92;;;;;;;;;;5054247;28;20040;-73
2022/12/09 07:49:23;;;;;;;36.25;18.38;;;;;;;;;;5043990;28;20057;-72
2022/12/09 07:51:49;;;;;;;37.55;16.85;;;;;;;;;;5032939;28;20036;-72
2022/12/09 07:54:16;;;;;;;46.22;19.58;;;;;;;;;;5052568;28;20084;-72
2022/12/09 07:56:43;;;;;;;38.80;19.20;;;;;;;;;;5038312;28;20460;-72
2022/12/09 07:59:10;;;;;;;37.42;17.58;;;;;;;;;;5036107;28;20051;-73
2022/12/09 08:01:36;;;;;;;38.50;18.35;;;;;;;;;;5037734;28;20512;-72
2022/12/09 08:04:04;;;;;;;38.40;19.13;;;;;;;;;;5034935;28;20171;-72
2022/12/09 08:06:30;;;;;;;36.95;17.63;;;;;;;;;;5040683;28;20102;-73
2022/12/09 08:08:58;;;;;;;40.28;20.50;;;;;;;;;;5034819;28;20048;-73
2022/12/09 08:11:25;;;;;;;41.95;19.85;;;;;;;;;;5053654;28;20052;-73
2022/12/09 08:13:52;;;;;;;37.67;18.98;;;;;;;;;;5055328;28;20545;-72
2022/12/09 08:16:19;;;;;;;39.80;19.42;;;;;;;;;;5049434;28;20177;-73
2022/12/09 08:18:45;;;;;;;39.28;19.92;;;;;;;;;;5037785;28;20052;-72
2022/12/09 08:21:16;;;;;;;45.20;21.75;;;;;;;;;;5040640;28;20044;-73
2022/12/09 08:23:42;;;;;;;40.65;19.75;;;;;;;;;;5032208;28;20105;-73
2022/12/09 08:26:09;;;;;;;43.28;21.38;;;;;;;;;;5038444;28;20054;-73
2022/12/09 08:28:35;;;;;;;38.15;19.42;;;;;;;;;;5033898;28;21373;-73
2022/12/09 08:31:12;;;;;;;42.83;19.13;;;;;;;;;;5039859;28;20165;-73
2022/12/09 08:33:38;;;;;;;44.47;21.17;;;;;;;;;;5053213;28;20053;-72
2022/12/09 08:36:08;;;;;;;50.40;21.50;;;;;;;;;;5053538;28;20044;-72
2022/12/09 08:38:34;;;;;;;41.45;20.23;;;;;;;;;;5023246;28;20066;-72
2022/12/09 08:41:07;;;;;;;44.88;20.33;;;;;;;;;;5019064;28;20098;-73
2022/12/09 08:43:33;;;;;;;45.45;19.45;;;;;;;;;;5025950;28;20174;-73
2022/12/09 08:45:59;;;;;;;36.35;19.02;;;;;;;;;;5036442;28;20198;-73
2022/12/09 08:48:25;;;;;;;41.47;20.60;;;;;;;;;;5033089;28;20048;-73
2022/12/09 08:50:53;;;;;;;43.10;20.98;;;;;;;;;;5052253;28;20044;-74
2022/12/09 08:53:19;;;;;;;47.35;21.98;;;;;;;;;;5037008;28;22455;-73
2022/12/09 08:55:45;;;;;;;41.40;20.98;;;;;;;;;;5025601;28;20461;-73
2022/12/09 08:58:11;;;;;;;49.92;23.25;;;;;;;;;;5035728;28;20687;-72
2022/12/09 09:00:37;;;;;;;45.35;21.83;;;;;;;;;;5060417;28;20251;-73
2022/12/09 09:03:04;;;;;;;44.92;22.35;;;;;;;;;;5015618;28;20123;-73
2022/12/09 09:05:30;;;;;;;44.42;21.83;;;;;;;;;;5037921;28;20132;-74
2022/12/09 09:07:56;;;;;;;45.90;23.33;;;;;;;;;;5054830;28;20047;-72
2022/12/09 09:10:22;;;;;;;49.17;24.15;;;;;;;;;;5038127;28;20056;-72
2022/12/09 09:12:48;;;;;;;46.20;21.90;;;;;;;;;;5036935;28;20068;-72
2022/12/09 09:15:14;;;;;;;47.75;22.25;;;;;;;;;;5039490;28;20044;-72
2022/12/09 09:17:40;;;;;;;49.70;24.17;;;;;;;;;;5035776;28;21301;-72
2022/12/09 09:20:06;;;;;;;45.92;23.70;;;;;;;;;;5024319;28;20106;-72
2022/12/09 09:22:33;;;;;;;50.95;23.90;;;;;;;;;;5046623;28;20518;-71
2022/12/09 09:24:59;;;;;;;47.65;22.25;;;;;;;;;;5057849;28;22272;-71
2022/12/09 09:27:25;;;;;;;48.28;23.23;;;;;;;;;;5037203;28;20036;-73
2022/12/09 09:29:51;;;;;;;45.67;22.27;;;;;;;;;;5012594;28;20407;-73
2022/12/09 09:32:17;;;;;;;43.60;21.65;;;;;;;;;;5036135;28;20052;-74
2022/12/09 09:34:44;;;;;;;44.63;21.88;;;;;;;;;;5039327;28;20135;-74
2022/12/09 09:37:10;;;;;;;46.53;23.25;;;;;;;;;;5037640;28;20066;-74
2022/12/09 09:39:36;;;;;;;48.30;22.23;;;;;;;;;;5039886;28;20212;-72
2022/12/09 09:42:04;;;;;;;41.45;20.48;;;;;;;;;;5057958;28;20467;-71
2022/12/09 09:44:39;;;;;;;44.78;21.73;;;;;;;;;;5038489;28;20139;-71
2022/12/09 09:47:12;;;;;;;47.83;21.98;;;;;;;;;;5041366;28;20537;-71
2022/12/09 09:49:43;;;;;;;36.42;18.80;;;;;;;;;;5027100;28;20107;-71
2022/12/09 09:52:13;;;;;;;45.58;23.83;;;;;;;;;;5045796;28;22125;-71
2022/12/09 09:54:39;;;;;;;39.25;20.52;;;;;;;;;;5039522;28;20185;-72
2022/12/09 09:57:05;;;;;;;42.45;21.42;;;;;;;;;;5043852;28;20059;-71
2022/12/09 09:59:40;;;;;;;44.13;22.20;;;;;;;;;;5045459;28;20145;-71
2022/12/09 10:02:18;;;;;;;40.20;20.02;;;;;;;;;;5056436;28;21047;-71
2022/12/09 10:04:44;;;;;;;48.60;23.98;;;;;;;;;;5032814;28;20128;-71
2022/12/09 10:07:17;;;;;;;41.70;21.90;;;;;;;;;;5045818;28;20230;-71
2022/12/09 10:09:52;;;;;;;44.30;22.40;;;;;;;;;;5037384;28;20223;-71
2022/12/09 10:12:18;;;;;;;;;;;;;;;;;;5041280;28;22047;-71
2022/12/09 10:14:51;;;;;;;39.28;21.10;;;;;;;;;;5038745;28;20006;-71
2022/12/09 10:17:26;;;;;;;46.53;22.25;;;;;;;;;;5040080;28;20102;-71
2022/12/09 10:19:54;;;;;;;37.95;21.40;;;;;;;;;;5039688;28;20083;-71
2022/12/09 10:22:22;;;;;;;37.75;20.10;;;;;;;;;;5038599;28;20090;-72
2022/12/09 10:24:50;;;;;;;33.75;19.20;;;;;;;;;;5035707;28;20044;-72
2022/12/09 10:27:16;;;;;;;33.20;20.42;;;;;;;;;;5042099;28;20063;-72
2022/12/09 10:29:45;;;;;;;33.25;19.63;;;;;;;;;;5041351;28;20048;-72
2022/12/09 10:32:17;;;;;;;31.17;19.17;;;;;;;;;;5053578;28;20047;-71
2022/12/09 10:34:43;;;;;;;32.22;20.60;;;;;;;;;;5026423;28;20056;-72
2022/12/09 10:37:15;;;;;;;30.42;19.52;;;;;;;;;;5038732;28;20063;-71
2022/12/09 10:39:42;;;;;;;32.45;19.30;;;;;;;;;;5041227;28;20532;-73
2022/12/09 10:45:03;;;;;;;29.48;18.67;;;;;;;;;;5041622;28;20052;-72
2022/12/09 10:47:29;;;;;;;29.25;18.08;;;;;;;;;;5040301;28;20139;-72
2022/12/09 10:49:57;;;;;;;27.75;18.30;;;;;;;;;;5025120;28;20059;-73
2022/12/09 10:52:24;;;;;;;30.27;18.60;;;;;;;;;;5041349;28;20072;-71
2022/12/09 10:54:50;;;;;;;29.35;18.33;;;;;;;;;;5055955;28;20066;-73
2022/12/09 10:57:16;;;;;;;28.98;19.60;;;;;;;;;;5043301;28;20048;-74
2022/12/09 11:00:04;;;;;;;30.38;18.13;;;;;;;;;;5042278;28;20052;-74
2022/12/09 11:02:30;;;;;;;29.40;17.05;;;;;;;;;;5040171;28;20056;-72
2022/12/09 11:05:16;;;;;;;30.73;20.48;;;;;;;;;;5044562;28;20143;-71
2022/12/09 11:07:46;;;;;;;29.67;19.38;;;;;;;;;;5043157;28;20060;-72
2022/12/09 11:10:17;;;;;;;29.63;19.77;;;;;;;;;;5041853;28;20056;-72
2022/12/09 11:12:44;;;;;;;31.05;20.13;;;;;;;;;;5048142;28;20119;-72
2022/12/09 11:15:29;;;;;;;34.03;20.70;;;;;;;;;;5028757;28;20087;-72
2022/12/09 11:17:56;;;;;;;32.85;19.85;;;;;;;;;;5040186;28;20159;-72
2022/12/09 11:20:25;;;;;;;29.35;18.08;;;;;;;;;;5039882;28;20061;-73
2022/12/09 11:23:14;;;;;;;31.55;20.98;;;;;;;;;;5061309;28;20047;-74
2022/12/09 11:25:50;;;;;;;31.42;19.75;;;;;;;;;;5060730;28;20056;-74
2022/12/09 11:28:16;;;;;;;30.55;18.73;;;;;;;;;;5044598;28;20047;-71
2022/12/09 11:30:50;;;;;;;29.33;19.85;;;;;;;;;;5042508;28;20053;-72
2022/12/09 11:33:16;;;;;;;26.70;17.63;;;;;;;;;;5024936;28;20051;-71
2022/12/09 11:35:42;;;;;;;28.50;18.48;;;;;;;;;;5042412;28;20052;-72
2022/12/09 11:38:23;;;;;;;27.60;18.40;;;;;;;;;;5042276;28;20083;-72
2022/12/09 11:40:58;;;;;;;27.75;17.45;;;;;;;;;;5062081;28;20044;-72
2022/12/09 11:43:33;;;;;;;28.33;18.60;;;;;;;;;;5043458;28;20040;-76
2022/12/09 11:45:59;;;;;;;30.23;19.75;;;;;;;;;;5041275;28;20055;-72
2022/12/09 11:48:29;;;;;;;29.38;19.20;;;;;;;;;;5024486;28;21980;-72
2022/12/09 11:50:56;;;;;;;26.52;16.42;;;;;;;;;;5035904;28;20053;-72
2022/12/09 11:53:32;;;;;;;25.33;17.23;;;;;;;;;;5057794;28;20147;-73
2022/12/09 11:56:02;;;;;;;26.70;17.63;;;;;;;;;;5036582;28;20162;-72
2022/12/09 11:58:38;;;;;;;27.02;18.02;;;;;;;;;;5040103;28;21973;-72
2022/12/09 12:01:07;;;;;;;25.63;17.55;;;;;;;;;;5034296;28;20052;-75
2022/12/09 12:03:43;;;;;;;29.92;18.73;;;;;;;;;;5030609;28;20060;-75
2022/12/09 12:06:19;;;;;;;26.17;17.13;;;;;;;;;;5050869;28;20062;-72
2022/12/09 12:08:51;;;;;;;26.00;17.33;;;;;;;;;;5039271;28;20044;-72
2022/12/09 12:11:19;;;;;;;25.58;16.92;;;;;;;;;;5055877;28;20605;-74
2022/12/09 12:13:49;;;;;;;25.85;17.83;;;;;;;;;;5055815;28;20064;-75
2022/12/09 12:16:15;;;;;;;25.70;17.67;;;;;;;;;;5039900;28;20139;-75
2022/12/09 12:18:41;;;;;;;25.42;17.55;;;;;;;;;;5042252;28;20083;-75
2022/12/09 12:21:22;;;;;;;23.38;17.17;;;;;;;;;;5041100;28;20086;-75
2022/12/09 12:24:07;;;;;;;26.80;18.10;;;;;;;;;;5041781;28;20063;-75
2022/12/09 12:26:50;;;;;;;31.85;17.58;;;;;;;;;;5023060;28;20187;-76
2022/12/09 12:29:22;;;;;;;28.55;18.20;;;;;;;;;;5058900;28;20040;-73
2022/12/09 12:31:51;;;;;;;29.60;18.48;;;;;;;;;;5040583;28;20044;-74
2022/12/09 12:34:20;;;;;;;32.70;20.13;;;;;;;;;;5023392;28;20170;-74
2022/12/09 12:36:46;;;;;;;35.67;21.23;;;;;;;;;;5044413;28;20178;-74
2022/12/09 12:39:32;;;;;;;31.92;17.92;;;;;;;;;;5036704;28;20091;-74
2022/12/09 12:42:22;;;;;;;31.35;18.85;;;;;;;;;;5029018;28;20475;-74
2022/12/09 12:47:46;;;;;;;31.55;18.92;;;;;;;;;;5041111;28;20056;-76
2022/12/09 12:50:25;;;;;;;32.72;19.40;;;;;;;;;;5054605;28;20059;-76
2022/12/09 12:52:51;;;;;;;38.05;22.10;;;;;;;;;;5055840;28;20452;-76
2022/12/09 12:55:36;;;;;;;34.03;19.00;;;;;;;;;;5040724;28;20051;-73
2022/12/09 12:58:08;;;;;;;37.47;20.50;;;;;;;;;;5023951;28;20051;-73
2022/12/09 13:00:53;;;;;;;39.95;22.13;;;;;;;;;;5046770;28;20732;-74
2022/12/09 13:03:27;;;;;;;42.05;23.63;;;;;;;;;;5022091;28;22683;-74
2022/12/09 13:05:53;;;;;;;;;;;;;;;;;;5039969;28;20149;-73
2022/12/09 13:08:26;;;;;;;42.83;21.73;;;;;;;;;;5042149;28;19924;-74
2022/12/09 13:10:53;;;;;;;43.67;23.23;;;;;;;;;;5039914;28;20130;-75
2022/12/09 13:13:42;;;;;;;41.63;21.38;;;;;;;;;;5058845;28;20044;-74
2022/12/09 13:16:19;;;;;;;45.45;24.17;;;;;;;;;;5052864;28;20055;-74
2022/12/09 13:18:47;;;;;;;42.15;22.10;;;;;;;;;;5043032;28;20633;-72
2022/12/09 13:21:13;;;;;;;47.17;24.88;;;;;;;;;;5055047;28;20048;-72
2022/12/09 13:23:39;;;;;;;38.80;19.30;;;;;;;;;;5038953;28;20048;-72
2022/12/09 13:26:18;;;;;;;44.88;23.98;;;;;;;;;;5047630;28;20051;-72
2022/12/09 13:28:44;;;;;;;48.28;24.10;;;;;;;;;;5044116;28;20268;-72
2022/12/09 13:31:10;;;;;;;47.17;24.65;;;;;;;;;;5041780;28;21980;-75
2022/12/09 13:33:55;;;;;;;41.22;22.17;;;;;;;;;;5042545;28;20057;-75
2022/12/09 13:36:21;;;;;;;43.00;23.27;;;;;;;;;;5046281;28;21211;-75
2022/12/09 13:38:47;;;;;;;50.13;26.02;;;;;;;;;;5039158;28;20043;-74
2022/12/09 13:41:26;;;;;;;41.08;22.08;;;;;;;;;;5044186;28;20535;-74
2022/12/09 13:43:52;;;;;;;42.53;21.70;;;;;;;;;;5059715;28;20036;-74
2022/12/09 13:46:22;;;;;;;37.63;21.13;;;;;;;;;;5043997;28;20071;-75
2022/12/09 13:48:49;;;;;;;38.15;19.17;;;;;;;;;;5042724;28;20047;-75
2022/12/09 13:51:15;;;;;;;42.67;22.58;;;;;;;;;;5043585;28;20047;-72
2022/12/09 13:53:57;;;;;;;45.47;23.95;;;;;;;;;;5044327;28;20079;-72
2022/12/09 13:56:27;;;;;;;48.90;24.17;;;;;;;;;;5059143;28;20052;-72
2022/12/09 13:59:12;;;;;;;42.42;22.95;;;;;;;;;;5042669;28;20052;-72
2022/12/09 14:01:48;;;;;;;44.60;23.73;;;;;;;;;;5044751;28;20048;-72
2022/12/09 14:04:17;;;;;;;43.05;22.02;;;;;;;;;;5044188;28;20064;-72
2022/12/09 14:06:46;;;;;;;48.75;25.65;;;;;;;;;;5042151;28;20050;-75
2022/12/09 14:09:24;;;;;;;36.95;20.05;;;;;;;;;;5043128;28;20059;-74
2022/12/09 14:11:51;;;;;;;45.30;24.23;;;;;;;;;;5054108;28;20044;-74
2022/12/09 14:14:23;;;;;;;46.70;24.80;;;;;;;;;;5044555;28;20086;-74
2022/12/09 14:16:49;;;;;;;46.28;22.95;;;;;;;;;;5041639;28;20356;-74
2022/12/09 14:19:28;;;;;;;48.28;24.90;;;;;;;;;;5031555;28;20052;-74
2022/12/09 14:22:16;;;;;;;39.75;21.45;;;;;;;;;;5044028;28;20060;-74
2022/12/09 14:24:43;;;;;;;43.35;22.60;;;;;;;;;;5025623;28;20184;-74
2022/12/09 14:27:12;;;;;;;46.55;23.73;;;;;;;;;;5060664;28;20511;-74
2022/12/09 14:29:47;;;;;;;41.25;21.73;;;;;;;;;;5043372;28;20063;-74
2022/12/09 14:32:33;;;;;;;36.78;19.83;;;;;;;;;;5042854;28;20730;-74